Disclaimer

Please do not use the information listed here in-flight or in-navigation, as they are not provided to us by the airports but are provided by volunteers, so they might be outdated.

Search


Regions


Airport information page

No radio frequency information is available.

Airport informations:
Latitude: 57° 21' 28.00" N
Longitude: 021° 32' 39.00" E
Elevation: 19 feet - 6 meters
Operating hours: Remarks
Operating agency: Civil government, landing fees and diplomatic clearance may be required
Timezone: UTC+2(+3DT) - Last Sunday in March to last Sunday in September
Fuel: Jet A1, without icing nhibitor.

100/130 MIL Spec, low lead, aviation gasoline (BLUE)

Runway information:
03/21 - 4259 x 105 feet< - >1298 x 32 meters

Recent METARs:
EVVA 210650Z AUTO VRB01KT 9999 OVC022 02/00 Q1032
EVVA 210720Z AUTO 05004KT 9999 OVC022 03/01 Q1032
EVVA 210750Z AUTO 05004KT 9999 OVC022 03/01 Q1032

Airport on the map: